General Aviation Weather

Text Reports

Enter one or more of the following location identifiers separated by a space:

Zip Code, Four-Character ICAO or Three-Character IATA airport codes.

METAR - Aviation Routine Weather Report
KRNM - Ramona, California
Updated at 8:53 PM GMT on April 19, 2014 (1:53 PM PDT):
METAR KRNM 192053Z 28011KT 10SM CLR 21/11 A2999 RMK AO2 SLP145 T02110111 56005
TAF - Terminal Area Forecast
KRNM - Ramona, California
Updated at 8:53 PM GMT on April 19, 2014 (1:53 PM PDT):
No TAF is currently available for this location.
Decoded:
No decoded TAF is available.
PIREP - Pilot Weather Report
KRNM - Ramona, California
Updated at 8:53 PM GMT on April 19, 2014 (1:53 PM PDT):
No PIREP is currently available for this location.
AIRMET - Airmens Meteorological Information
KRNM - Ramona, California
Updated at 8:53 PM GMT on April 19, 2014 (1:53 PM PDT):
No AIRMET is currently available for this location.
SIGMET - Significant Meteorological Information
KRNM - Ramona, California
Updated at 8:53 PM GMT on April 19, 2014 (1:53 PM PDT):
No SIGMET is currently available for this location.
NOTAM - Notice to Airmen
KRNM - Ramona, California
Updated at 8:53 PM GMT on April 19, 2014 (1:53 PM PDT):
No NOTAM is currently available for this location.
Forecast Area
KRNM - Ramona, California
Updated at 8:53 PM GMT on April 19, 2014 (1:53 PM PDT):
No NOTAM is currently available for this location.
Aviation Weather Maps